Time;durP1;ratioP1;P1;durP2;ratioP2;P2;SDS_P1;SDS_P2;PMS_P1;PMS_P2;Temp;Humidity;BMP_temperature;BMP_pressure;BME280_temperature;BME280_humidity;BME280_pressure;Samples;Min_cycle;Max_cycle;Signal;HPM_P1;HPM_P2
2024/02/26 00:00:28;;;;;;;2.87;2.03;;;;;;;5.94;68.35;97183.72;5070744;28;41974;-82
2024/02/26 00:02:55;;;;;;;2.97;2.10;;;;;;;6.01;68.25;97195.50;5071370;28;42200;-83
2024/02/26 00:05:23;;;;;;;2.90;2.20;;;;;;;6.01;68.48;97203.38;5071402;28;40913;-82
2024/02/26 00:07:52;;;;;;;3.03;2.30;;;;;;;6.00;68.20;97193.81;5071362;28;41991;-81
2024/02/26 00:10:19;;;;;;;2.57;2.17;;;;;;;5.99;68.38;97197.41;5070959;28;43767;-80
2024/02/26 00:12:47;;;;;;;2.33;2.03;;;;;;;6.00;68.00;97195.59;5054294;28;42344;-81
2024/02/26 00:15:15;;;;;;;3.20;2.33;;;;;;;5.99;67.72;97192.13;5036079;28;39801;-81
2024/02/26 00:17:42;;;;;;;3.40;2.50;;;;;;;6.00;67.85;97192.97;5070191;28;42136;-83
2024/02/26 00:20:12;;;;;;;2.23;2.03;;;;;;;5.90;67.97;97181.44;5070298;28;41844;-81
2024/02/26 00:22:39;;;;;;;3.37;2.27;;;;;;;5.99;68.70;97186.88;5053547;28;41422;-81
2024/02/26 00:25:09;;;;;;;2.50;2.30;;;;;;;5.96;68.73;97181.00;5070077;28;38980;-82
2024/02/26 00:27:36;;;;;;;3.20;2.37;;;;;;;5.99;68.55;97184.25;5071039;28;41907;-82
2024/02/26 00:30:04;;;;;;;3.63;2.43;;;;;;;5.86;68.30;97164.19;5071381;28;42733;-82
2024/02/26 00:32:32;;;;;;;2.77;2.47;;;;;;;5.95;69.15;97179.31;5054916;28;40872;-82
2024/02/26 00:34:59;;;;;;;3.27;2.40;;;;;;;5.93;69.34;97171.56;5073727;28;40139;-81
2024/02/26 00:37:27;;;;;;;3.73;2.70;;;;;;;5.85;69.44;97157.25;5073493;28;41944;-82
2024/02/26 00:39:54;;;;;;;3.87;2.80;;;;;;;5.92;69.21;97162.00;5073594;28;42700;-83
2024/02/26 00:42:23;;;;;;;3.57;2.47;;;;;;;5.92;69.16;97164.63;5074349;28;42257;-82
2024/02/26 00:44:51;;;;;;;3.43;2.33;;;;;;;5.93;69.31;97160.22;5073535;28;39079;-83
2024/02/26 00:47:18;;;;;;;2.53;2.23;;;;;;;5.93;69.72;97153.19;5073337;28;42070;-81
2024/02/26 00:49:46;;;;;;;3.53;2.73;;;;;;;5.92;69.34;97163.78;5073341;28;42937;-83
2024/02/26 00:52:13;;;;;;;3.60;2.53;;;;;;;5.88;69.89;97157.91;5073302;28;41104;-82
2024/02/26 00:54:41;;;;;;;3.90;2.60;;;;;;;5.88;69.45;97162.28;5074354;28;39914;-83
2024/02/26 00:57:08;;;;;;;4.33;3.03;;;;;;;5.85;69.50;97160.72;5073161;28;41861;-82
2024/02/26 00:59:37;;;;;;;4.23;2.93;;;;;;;5.84;69.45;97166.06;5057161;28;42459;-84
2024/02/26 01:02:06;;;;;;;3.53;2.70;;;;;;;5.80;69.47;97167.25;5074338;28;42272;-82
2024/02/26 01:04:35;;;;;;;3.87;2.70;;;;;;;5.78;69.70;97172.59;5074617;28;39841;-82
2024/02/26 01:07:03;;;;;;;4.17;2.77;;;;;;;5.77;69.39;97170.94;5075474;28;42707;-82
2024/02/26 01:09:30;;;;;;;3.63;2.60;;;;;;;5.76;69.66;97169.25;5057864;28;41744;-82
2024/02/26 01:11:58;;;;;;;2.73;2.23;;;;;;;5.78;69.26;97186.59;5074433;28;42782;-81
2024/02/26 01:14:25;;;;;;;2.33;2.07;;;;;;;5.62;69.32;97156.22;5057127;28;39645;-82
2024/02/26 01:16:54;;;;;;;2.60;2.30;;;;;;;5.54;69.19;97142.81;5074026;28;41650;-81
2024/02/26 01:19:22;;;;;;;3.27;2.67;;;;;;;5.78;69.07;97167.34;5075073;28;42984;-82
2024/02/26 01:21:49;;;;;;;2.90;2.27;;;;;;;5.84;69.13;97174.78;5073659;28;41121;-82
2024/02/26 01:24:17;;;;;;;3.63;2.47;;;;;;;5.90;69.33;97177.03;5073680;28;38859;-83
2024/02/26 01:26:44;;;;;;;3.50;2.37;;;;;;;5.93;68.73;97179.44;5073293;28;40468;-82
2024/02/26 01:29:11;;;;;;;3.67;2.43;;;;;;;5.96;69.06;97175.75;5055534;28;41319;-83
2024/02/26 01:31:39;;;;;;;2.90;2.17;;;;;;;6.01;68.76;97168.38;5072370;28;42642;-81
2024/02/26 01:34:08;;;;;;;2.13;1.93;;;;;;;6.03;68.45;97177.84;5072542;28;39122;-81
2024/02/26 01:36:35;;;;;;;3.07;2.03;;;;;;;6.09;68.54;97182.66;5072544;28;41988;-84
2024/02/26 01:39:04;;;;;;;2.20;1.93;;;;;;;6.13;68.59;97173.59;5072346;28;41654;-83
2024/02/26 01:41:31;;;;;;;1.93;1.70;;;;;;;6.06;68.30;97155.75;5055321;28;42497;-82
2024/02/26 01:43:59;;;;;;;2.70;2.23;;;;;;;6.16;68.54;97167.31;5055439;28;39010;-82
2024/02/26 01:46:26;;;;;;;2.23;2.00;;;;;;;6.25;68.21;97176.31;5073241;28;41732;-81
2024/02/26 01:48:54;;;;;;;3.97;2.53;;;;;;;6.28;68.08;97176.94;5055078;28;41373;-83
2024/02/26 01:51:23;;;;;;;3.60;2.13;;;;;;;6.32;67.93;97183.63;5071734;28;42335;-81
2024/02/26 01:53:52;;;;;;;3.27;2.30;;;;;;;6.34;67.90;97180.88;5072392;28;38929;-83
2024/02/26 01:56:22;;;;;;;2.40;1.80;;;;;;;6.32;67.85;97178.38;5055070;28;41939;-81
2024/02/26 01:58:50;;;;;;;2.90;2.13;;;;;;;6.38;67.92;97182.34;5054972;28;42800;-81
2024/02/26 02:01:22;;;;;;;2.73;1.97;;;;;;;6.39;67.96;97189.28;5073001;28;43257;-83
2024/02/26 02:03:50;;;;;;;2.20;1.90;;;;;;;6.39;68.09;97181.41;5056389;28;40112;-81
2024/02/26 02:06:18;;;;;;;2.27;2.00;;;;;;;6.40;68.16;97185.72;5056277;28;40400;-81
2024/02/26 02:08:47;;;;;;;2.63;2.23;;;;;;;6.41;68.19;97182.16;5056147;28;43920;-82
2024/02/26 02:11:15;;;;;;;3.20;2.07;;;;;;;6.44;67.84;97184.53;5072972;28;42141;-82
2024/02/26 02:13:43;;;;;;;2.67;1.87;;;;;;;6.45;68.20;97178.31;5056350;28;38998;-83
2024/02/26 02:16:10;;;;;;;3.83;1.97;;;;;;;5.98;68.00;97116.06;5072850;28;42451;-83
2024/02/26 02:18:38;;;;;;;3.23;2.20;;;;;;;6.45;67.88;97183.59;5056010;28;41661;-81
2024/02/26 02:21:07;;;;;;;2.17;1.80;;;;;;;6.49;68.14;97191.16;5055854;28;41753;-82
2024/02/26 02:23:34;;;;;;;2.20;2.00;;;;;;;6.51;67.97;97187.56;5055893;28;40082;-81
2024/02/26 02:26:02;;;;;;;2.50;2.00;;;;;;;6.43;67.85;97172.31;5072700;28;42679;-83
2024/02/26 02:28:29;;;;;;;2.53;2.33;;;;;;;6.55;68.24;97189.03;5070749;28;41328;-82
2024/02/26 02:30:58;;;;;;;2.70;2.00;;;;;;;6.51;68.67;97177.88;5054657;28;44546;-83
2024/02/26 02:33:27;;;;;;;3.50;2.00;;;;;;;6.53;68.96;97176.00;5071642;28;40346;-81
2024/02/26 02:35:55;;;;;;;2.73;2.30;;;;;;;6.35;69.00;97148.41;5071359;28;41899;-83
2024/02/26 02:38:25;;;;;;;2.50;1.90;;;;;;;6.47;68.87;97165.91;5071379;28;41717;-82
2024/02/26 02:40:53;;;;;;;2.37;2.07;;;;;;;6.59;68.78;97186.03;5071485;28;41519;-82
2024/02/26 02:43:21;;;;;;;2.50;1.93;;;;;;;6.42;68.63;97150.50;5054866;28;39029;-83
2024/02/26 02:45:48;;;;;;;2.20;2.00;;;;;;;6.61;69.10;97181.53;5071511;28;42572;-82
2024/02/26 02:48:16;;;;;;;1.90;1.60;;;;;;;6.62;68.86;97177.94;5070928;28;41317;-82
2024/02/26 02:50:43;;;;;;;2.93;1.90;;;;;;;6.64;68.74;97177.84;5054264;28;42777;-82
2024/02/26 02:53:11;;;;;;;3.17;2.10;;;;;;;6.64;69.29;97173.41;5072448;28;39886;-81
2024/02/26 02:55:40;;;;;;;3.50;1.97;;;;;;;6.66;69.50;97161.00;5053642;28;41078;-81
2024/02/26 02:58:07;;;;;;;3.30;2.43;;;;;;;6.60;69.48;97156.16;5072177;28;42813;-83
2024/02/26 03:00:35;;;;;;;3.70;2.70;;;;;;;6.69;69.37;97166.00;5071943;28;42645;-82
2024/02/26 03:03:02;;;;;;;2.40;1.93;;;;;;;6.69;69.50;97155.47;5072560;28;39909;-81
2024/02/26 03:05:30;;;;;;;2.67;2.13;;;;;;;6.70;69.91;97157.16;5073228;28;41322;-82
2024/02/26 03:07:57;;;;;;;2.90;2.20;;;;;;;6.71;69.81;97153.59;5071939;28;43289;-82
2024/02/26 03:10:25;;;;;;;3.33;2.60;;;;;;;6.70;70.00;97151.91;5071704;28;43456;-81
2024/02/26 03:12:56;;;;;;;2.60;2.00;;;;;;;6.70;69.70;97148.44;5055354;28;39195;-83
2024/02/26 03:15:23;;;;;;;2.80;2.30;;;;;;;6.70;70.38;97149.28;5055078;28;42832;-80
2024/02/26 03:17:51;;;;;;;3.33;2.17;;;;;;;6.66;70.24;97142.59;5072077;28;42725;-82
2024/02/26 03:20:19;;;;;;;3.53;2.77;;;;;;;6.62;70.46;97133.22;5054800;28;42690;-82
2024/02/26 03:22:47;;;;;;;3.43;2.13;;;;;;;6.69;70.75;97144.13;5055034;28;39227;-82
2024/02/26 03:25:14;;;;;;;3.03;2.20;;;;;;;6.62;70.19;97133.22;5072758;28;41445;-82
2024/02/26 03:27:41;;;;;;;3.47;2.30;;;;;;;6.71;70.94;97137.81;5071863;28;43996;-82
2024/02/26 03:30:11;;;;;;;2.57;2.20;;;;;;;6.70;71.22;97136.13;5054874;28;42162;-83
2024/02/26 03:32:38;;;;;;;3.57;2.67;;;;;;;6.68;70.91;97127.50;5055130;28;39390;-81
2024/02/26 03:35:07;;;;;;;5.37;2.37;;;;;;;6.63;71.49;97115.66;5071877;28;40469;-81
2024/02/26 03:37:34;;;;;;;3.40;2.50;;;;;;;6.65;71.12;97121.66;5054916;28;41859;-81
2024/02/26 03:40:03;;;;;;;3.13;2.07;;;;;;;6.75;71.22;97139.25;5072830;28;42218;-82
2024/02/26 03:42:30;;;;;;;3.43;2.00;;;;;;;6.76;70.82;97146.19;5071567;28;40198;-82
2024/02/26 03:44:58;;;;;;;3.03;2.10;;;;;;;6.73;70.76;97133.28;5071506;28;42823;-82
2024/02/26 03:47:27;;;;;;;2.70;1.97;;;;;;;6.76;70.74;97134.84;5054510;28;44098;-83
2024/02/26 03:49:54;;;;;;;2.27;2.07;;;;;;;6.66;71.66;97126.81;5053636;28;41449;-82
2024/02/26 03:52:21;;;;;;;3.33;2.37;;;;;;;6.75;71.29;97135.78;5052883;28;38884;-81
2024/02/26 03:54:49;;;;;;;3.17;2.30;;;;;;;6.63;71.45;97119.13;5070615;28;41865;-82
2024/02/26 03:57:17;;;;;;;3.43;2.40;;;;;;;6.75;71.55;97139.25;5053525;28;41856;-81
2024/02/26 03:59:44;;;;;;;3.23;2.50;;;;;;;6.68;70.93;97132.75;5054128;28;42937;-81
2024/02/26 04:02:11;;;;;;;4.27;2.20;;;;;;;6.78;70.84;97146.94;5071147;28;41231;-82
2024/02/26 04:04:40;;;;;;;3.63;2.60;;;;;;;6.78;71.12;97162.72;5071777;28;41911;-81
2024/02/26 04:07:08;;;;;;;3.10;2.40;;;;;;;6.80;70.71;97163.41;5074064;28;43708;-81
2024/02/26 04:09:35;;;;;;;2.73;2.10;;;;;;;6.82;70.88;97161.50;5075141;28;42537;-83
2024/02/26 04:12:03;;;;;;;3.77;2.60;;;;;;;6.78;70.88;97167.97;5076205;28;40702;-81
2024/02/26 04:14:30;;;;;;;5.60;2.40;;;;;;;6.82;70.93;97197.50;5075111;28;41759;-83
2024/02/26 04:16:58;;;;;;;3.03;2.40;;;;;;;6.68;71.38;97164.31;5075049;28;42749;-83
2024/02/26 04:19:25;;;;;;;2.20;1.90;;;;;;;6.81;71.52;97174.78;5074779;28;40940;-81
2024/02/26 04:21:55;;;;;;;2.70;2.50;;;;;;;6.80;71.54;97184.47;5074831;28;38810;-82
2024/02/26 04:24:23;;;;;;;4.00;2.30;;;;;;;6.82;71.33;97193.09;5074659;28;42418;-82
2024/02/26 04:26:50;;;;;;;2.63;2.20;;;;;;;6.84;70.99;97196.44;5075385;28;43016;-82
2024/02/26 04:29:18;;;;;;;2.17;1.90;;;;;;;6.49;70.59;97135.09;5073247;28;42265;-83
2024/02/26 04:31:46;;;;;;;2.20;1.57;;;;;;;6.88;70.41;97194.44;5056581;28;38901;-83
2024/02/26 04:34:14;;;;;;;2.80;1.80;;;;;;;6.78;70.55;97180.28;5056694;28;41789;-82
2024/02/26 04:36:42;;;;;;;2.77;1.97;;;;;;;6.75;70.64;97170.00;5073253;28;41307;-81
2024/02/26 04:39:11;;;;;;;5.37;2.57;;;;;;;6.81;71.41;97172.16;5073315;28;43009;-82
2024/02/26 04:41:38;;;;;;;2.90;2.00;;;;;;;6.77;71.67;97173.34;5056330;28;39248;-81
2024/02/26 04:44:06;;;;;;;3.30;2.57;;;;;;;6.76;71.68;97172.50;5074522;28;41859;-82
2024/02/26 04:46:34;;;;;;;3.60;2.20;;;;;;;6.77;71.62;97168.09;5073996;28;43026;-83
2024/02/26 04:49:02;;;;;;;4.57;2.30;;;;;;;6.65;71.32;97161.94;5074416;28;42375;-81
2024/02/26 04:51:29;;;;;;;3.03;2.37;;;;;;;6.75;71.62;97181.34;5056368;28;38700;-82
2024/02/26 04:53:57;;;;;;;4.73;2.70;;;;;;;6.65;71.78;97158.47;5073744;28;41885;-81
2024/02/26 04:56:26;;;;;;;4.50;2.70;;;;;;;6.67;72.23;97173.19;5073170;28;41678;-83
2024/02/26 04:58:53;;;;;;;3.43;2.50;;;;;;;6.68;72.56;97174.84;5073623;28;43204;-82
2024/02/26 05:01:21;;;;;;;3.33;2.40;;;;;;;6.71;72.83;97166.75;5057156;28;38875;-81
2024/02/26 05:03:48;;;;;;;3.70;2.70;;;;;;;6.70;72.56;97174.72;5074600;28;42028;-81
2024/02/26 05:06:16;;;;;;;4.57;2.60;;;;;;;6.67;72.52;97170.56;5074178;28;43406;-81
2024/02/26 05:08:44;;;;;;;4.07;2.33;;;;;;;6.69;72.59;97189.69;5074350;28;40928;-80
2024/02/26 05:11:12;;;;;;;4.20;2.70;;;;;;;6.70;72.29;97228.19;5072807;28;39213;-80
2024/02/26 05:13:40;;;;;;;4.47;2.73;;;;;;;6.69;72.84;97207.25;5056338;28;41617;-82
2024/02/26 05:16:08;;;;;;;3.83;2.57;;;;;;;6.67;73.42;97210.03;5073105;28;42673;-81
2024/02/26 05:18:35;;;;;;;4.13;2.73;;;;;;;6.66;72.98;97207.50;5055435;28;41205;-80
2024/02/26 05:21:03;;;;;;;4.80;2.97;;;;;;;6.64;73.50;97219.91;5073132;28;39883;-82
2024/02/26 05:23:31;;;;;;;3.63;2.40;;;;;;;6.55;74.41;97199.56;5073224;28;41646;-80
2024/02/26 05:25:58;;;;;;;2.80;2.10;;;;;;;6.62;73.67;97211.28;5055827;28;43074;-82
2024/02/26 05:28:26;;;;;;;3.33;2.60;;;;;;;6.61;73.19;97213.06;5074249;28;42248;-80
2024/02/26 05:30:55;;;;;;;3.40;2.67;;;;;;;6.60;73.28;97207.94;5073051;28;39654;-81
2024/02/26 05:33:23;;;;;;;3.53;2.30;;;;;;;6.59;73.10;97212.34;5072685;28;41698;-82
2024/02/26 05:35:50;;;;;;;2.87;2.57;;;;;;;6.58;72.52;97208.03;5072614;28;42793;-81
2024/02/26 05:38:18;;;;;;;2.93;2.30;;;;;;;6.57;72.82;97219.50;5055231;28;42365;-81
2024/02/26 08:28:32;;;;;;;9.30;5.93;;;;;;;6.61;100.00;97299.88;5119852;27;20577;-83
2024/02/26 08:31:00;;;;;;;8.53;6.20;;;;;;;7.06;100.00;97294.84;5070200;28;39162;-83
2024/02/26 08:34:06;;;;;;;9.50;6.30;;;;;;;7.97;99.56;97345.94;5070337;28;41350;-82
2024/02/26 08:36:35;;;;;;;6.37;5.27;;;;;;;8.47;94.74;97357.06;5070562;28;41403;-84
2024/02/26 08:39:03;;;;;;;9.40;5.40;;;;;;;8.72;92.20;97340.16;5086966;28;40926;-87
2024/02/26 08:41:31;;;;;;;8.43;5.80;;;;;;;8.96;89.75;97357.53;5070604;28;39727;-89
2024/02/26 08:44:00;;;;;;;8.47;5.87;;;;;;;9.19;88.49;97352.19;5070537;28;41181;-86
2024/02/26 08:46:39;;;;;;;10.50;6.83;;;;;;;9.46;87.38;97363.16;5069766;28;43841;-82
2024/02/26 08:49:07;;;;;;;8.47;5.67;;;;;;;9.60;85.13;97362.03;5069871;28;41543;-84
2024/02/26 08:51:35;;;;;;;7.40;5.63;;;;;;;9.57;83.11;97357.00;5053629;28;38731;-87
2024/02/26 08:54:02;;;;;;;9.83;5.87;;;;;;;9.61;81.67;97369.84;5104043;28;41244;-88
2024/02/26 08:56:30;;;;;;;7.00;5.40;;;;;;;9.71;81.89;97360.19;5070816;28;42743;-87
2024/02/26 08:59:03;;;;;;;8.50;5.60;;;;;;;9.85;80.70;97358.19;5070540;28;42566;-88
2024/02/26 09:01:32;;;;;;;7.23;5.00;;;;;;;9.88;80.45;97339.44;5077595;28;40685;-86
2024/02/26 09:04:00;;;;;;;7.27;5.40;;;;;;;9.67;79.18;97295.31;5092580;28;41348;-83
2024/02/26 09:06:29;;;;;;;7.83;5.43;;;;;;;9.67;79.27;97295.31;5082727;28;42801;-87
2024/02/26 09:08:57;;;;;;;8.53;5.43;;;;;;;9.66;78.99;97293.63;5072104;28;41438;-87
2024/02/26 09:11:27;;;;;;;8.83;5.70;;;;;;;10.14;79.73;97334.59;5071251;28;40256;-85
2024/02/26 09:13:55;;;;;;;5.20;4.50;;;;;;;9.91;78.98;97281.00;5070752;28;41678;-87
2024/02/26 09:16:25;;;;;;;7.53;5.07;;;;;;;9.93;79.60;97279.91;5087742;28;44119;-87
2024/02/26 09:18:53;;;;;;;8.47;4.70;;;;;;;10.41;79.82;97337.53;5070460;28;43804;-90
2024/02/26 09:21:23;;;;;;;6.63;5.07;;;;;;;10.25;79.03;97295.72;5070293;28;39133;-86
2024/02/26 09:23:51;;;;;;;5.80;4.47;;;;;;;10.37;79.04;97273.47;5069060;28;42102;-91
2024/02/26 09:26:22;;;;;;;5.50;4.53;;;;;;;10.87;77.58;97330.91;5069063;28;41444;-87
2024/02/26 09:28:50;;;;;;;6.13;3.97;;;;;;;10.89;77.59;97278.63;5069437;28;43351;-85
2024/02/26 09:31:19;;;;;;;6.27;4.43;;;;;;;11.30;76.21;97314.66;5069281;28;39564;-87
2024/02/26 09:33:48;;;;;;;6.30;4.27;;;;;;;11.46;74.40;97320.28;5069181;28;41389;-85
2024/02/26 09:36:16;;;;;;;5.77;4.27;;;;;;;11.78;73.42;97327.97;5045895;28;41821;-89
2024/02/26 09:38:44;;;;;;;6.83;4.20;;;;;;;12.14;69.95;97368.84;5020889;28;42244;-82
2024/02/26 09:41:15;;;;;;;5.00;4.47;;;;;;;12.35;70.41;97369.53;5068692;28;38514;-82
2024/02/26 09:43:45;;;;;;;5.63;3.67;;;;;;;12.40;68.82;97388.50;5069456;28;42668;-80
2024/02/26 09:46:15;;;;;;;6.33;4.90;;;;;;;12.37;68.27;97380.81;5071391;28;42902;-82
2024/02/26 09:48:44;;;;;;;5.47;4.23;;;;;;;12.48;67.35;97378.00;5055037;28;41428;-81
2024/02/26 09:51:15;;;;;;;4.80;4.00;;;;;;;12.46;67.58;97326.88;5054664;28;41520;-81
2024/02/26 09:53:45;;;;;;;5.90;4.23;;;;;;;13.19;66.46;97380.97;5072031;28;41969;-82
2024/02/26 09:56:13;;;;;;;5.40;3.90;;;;;;;13.68;65.36;97370.84;5054654;28;41828;-83
2024/02/26 09:58:45;;;;;;;5.53;4.23;;;;;;;14.28;62.25;97381.69;5072055;28;43524;-83
2024/02/26 10:01:19;;;;;;;7.07;4.60;;;;;;;14.84;60.75;97404.38;5069810;28;40164;-81
2024/02/26 10:03:55;;;;;;;5.73;4.37;;;;;;;14.99;59.21;97421.47;5073260;28;40744;-83
2024/02/26 10:06:25;;;;;;;5.00;3.70;;;;;;;14.97;57.71;97432.28;5070542;28;42711;-83
2024/02/26 10:08:54;;;;;;;7.00;4.33;;;;;;;15.01;58.87;97422.16;5072710;28;43301;-82
2024/02/26 10:11:23;;;;;;;5.93;4.47;;;;;;;14.95;56.15;97433.47;5072354;28;41020;-82
2024/02/26 10:13:50;;;;;;;6.17;4.37;;;;;;;15.07;56.20;97426.88;5055895;28;41226;-83
2024/02/26 10:16:18;;;;;;;4.57;3.80;;;;;;;15.45;56.86;97426.34;5055609;28;43753;-83
2024/02/26 10:18:47;;;;;;;5.07;3.97;;;;;;;15.56;56.18;97411.09;5056794;28;41140;-82
2024/02/26 10:21:17;;;;;;;5.73;3.67;;;;;;;16.03;54.21;97457.59;5055715;28;38752;-85
2024/02/26 10:23:47;;;;;;;4.53;3.53;;;;;;;17.05;53.58;97465.13;5056027;28;41712;-85
2024/02/26 10:26:16;;;;;;;6.93;4.13;;;;;;;17.35;50.41;97460.03;5054899;28;42274;-85
2024/02/26 10:28:46;;;;;;;5.43;3.73;;;;;;;17.38;48.81;97481.94;5054909;28;41054;-82
2024/02/26 10:31:16;;;;;;;4.50;3.23;;;;;;;18.04;50.57;97471.81;5070753;28;39755;-86
2024/02/26 10:33:44;;;;;;;4.13;3.60;;;;;;;19.77;46.15;97477.16;5055158;28;40856;-88
2024/02/26 10:36:13;;;;;;;4.27;3.70;;;;;;;21.61;42.07;97456.50;5054352;28;41852;-91
2024/02/26 10:38:43;;;;;;;5.63;3.53;;;;;;;23.07;40.30;97480.97;5054905;28;41515;-90
2024/02/26 10:41:15;;;;;;;4.63;4.10;;;;;;;23.74;38.55;97504.16;5088426;28;38379;-90
2024/02/26 10:43:48;;;;;;;3.93;3.37;;;;;;;23.42;38.01;97522.09;5055130;28;42506;-89
2024/02/26 10:46:17;;;;;;;3.83;3.47;;;;;;;22.89;38.11;97486.16;5054397;28;42076;-87
2024/02/26 10:48:53;;;;;;;4.33;3.50;;;;;;;23.11;37.89;97501.16;5054958;28;41253;-91
2024/02/26 10:51:26;;;;;;;3.63;3.33;;;;;;;23.03;37.77;97509.44;5053755;28;39281;-87
2024/02/26 10:54:00;;;;;;;3.60;3.27;;;;;;;22.66;37.60;97534.28;5055624;28;42252;-89
2024/02/26 10:56:35;;;;;;;3.73;3.27;;;;;;;22.22;36.87;97524.81;5088337;28;41926;-90
2024/02/26 10:59:03;;;;;;;3.90;3.47;;;;;;;21.88;37.47;97467.19;5054872;28;42191;-89
2024/02/26 11:01:31;;;;;;;4.30;3.53;;;;;;;21.78;38.94;97469.44;5055713;28;40604;-89
2024/02/26 11:04:01;;;;;;;4.23;3.60;;;;;;;21.77;38.26;97489.31;5055128;28;43028;-87
2024/02/26 11:06:30;;;;;;;3.80;3.10;;;;;;;21.88;38.60;97496.84;5055214;28;42554;-90
2024/02/26 11:09:00;;;;;;;4.27;3.23;;;;;;;21.65;39.57;97507.09;5054956;28;41373;-89
2024/02/26 11:11:37;;;;;;;3.40;3.10;;;;;;;21.34;39.90;97520.16;5055108;28;39383;-92
2024/02/26 11:15:04;;;;;;;3.23;2.93;;;;;;;20.39;38.85;97451.44;5055677;28;40932;-92
2024/02/26 11:17:38;;;;;;;3.43;3.10;;;;;;;20.29;40.50;97476.91;5017862;28;44485;-90
2024/02/26 11:20:11;;;;;;;4.50;2.80;;;;;;;19.76;39.16;97502.34;5017874;28;41317;-87
2024/02/26 11:22:38;;;;;;;2.93;2.33;;;;;;;19.25;40.81;97483.41;5042148;28;39290;-90
2024/02/26 11:25:07;;;;;;;3.13;2.83;;;;;;;18.91;41.56;97479.41;5055295;28;40831;-87
2024/02/26 11:27:43;;;;;;;5.30;2.50;;;;;;;18.81;42.65;97468.06;5054294;28;42202;-87
2024/02/26 11:30:13;;;;;;;3.57;2.73;;;;;;;18.64;41.19;97478.13;5053680;28;42451;-86
2024/02/26 11:32:41;;;;;;;3.57;2.67;;;;;;;18.49;41.59;97461.09;5053805;28;39172;-86
2024/02/26 11:35:10;;;;;;;3.10;2.80;;;;;;;18.55;42.56;97464.91;5054199;28;40743;-91
2024/02/26 11:37:38;;;;;;;3.27;2.97;;;;;;;18.35;42.02;97442.28;5054434;28;43354;-87
2024/02/26 11:40:12;;;;;;;3.47;2.80;;;;;;;18.49;41.42;97460.28;5058292;28;41603;-88
2024/02/26 11:43:13;;;;;;;3.63;2.73;;;;;;;18.82;42.54;97476.94;5057827;28;39961;-86
2024/02/26 11:45:53;;;;;;;3.10;2.53;;;;;;;18.83;41.15;97471.41;5057158;28;42329;-87
2024/02/26 11:48:25;;;;;;;2.90;2.60;;;;;;;18.65;41.02;97439.56;5058144;28;41936;-86
2024/02/26 11:50:54;;;;;;;3.40;2.40;;;;;;;18.87;41.98;97480.75;5062039;28;41320;-85
2024/02/26 11:53:27;;;;;;;2.83;2.50;;;;;;;18.55;41.44;97487.19;5057329;28;40273;-86
2024/02/26 11:56:14;;;;;;;3.60;2.90;;;;;;;18.61;42.59;97485.69;5055616;28;41315;-86
2024/02/26 11:58:43;;;;;;;4.70;2.90;;;;;;;18.69;41.98;97482.91;5054944;28;41923;-85
2024/02/26 12:01:42;;;;;;;3.87;2.30;;;;;;;18.91;42.40;97478.56;5072678;28;41011;-83
2024/02/26 12:04:15;;;;;;;2.53;2.00;;;;;;;19.20;42.29;97475.06;5066744;28;40248;-83
2024/02/26 12:06:48;;;;;;;2.17;1.97;;;;;;;19.93;41.82;97474.22;5034590;28;42974;-83
2024/02/26 12:09:37;;;;;;;4.60;2.47;;;;;;;20.23;39.84;97500.03;5038550;28;41688;-86
2024/02/26 12:12:07;;;;;;;2.70;2.30;;;;;;;20.27;38.99;97495.13;5054224;28;41074;-84
2024/02/26 12:14:39;;;;;;;4.27;2.50;;;;;;;20.22;39.13;97486.78;5053294;28;40045;-83
2024/02/26 12:17:09;;;;;;;3.80;2.40;;;;;;;20.24;38.92;97490.94;5053073;28;42232;-84
2024/02/26 12:19:37;;;;;;;2.97;2.17;;;;;;;20.29;39.89;97491.19;5053314;28;42111;-85
2024/02/26 12:22:07;;;;;;;2.70;1.73;;;;;;;20.10;39.39;97489.13;5069854;28;42579;-85
2024/02/26 12:24:35;;;;;;;2.83;2.47;;;;;;;19.82;39.05;97498.88;5069588;28;40007;-86
2024/02/26 12:27:03;;;;;;;3.17;2.17;;;;;;;19.34;39.52;97495.72;5052772;28;40599;-84
2024/02/26 12:29:30;;;;;;;3.80;2.00;;;;;;;18.94;39.67;97497.78;5052943;28;41939;-83
2024/02/26 12:35:20;;;;;;;4.10;2.60;;;;;;;18.52;39.87;97508.16;5058600;28;39340;-88
2024/02/26 12:37:48;;;;;;;2.40;2.10;;;;;;;18.61;41.19;97517.84;5053360;28;42202;-87
2024/02/26 12:40:15;;;;;;;3.00;2.23;;;;;;;18.45;39.91;97486.59;5053232;28;41611;-88
2024/02/26 12:42:43;;;;;;;2.73;2.00;;;;;;;18.72;39.54;97511.22;5052917;28;41474;-86
2024/02/26 12:45:11;;;;;;;2.63;2.20;;;;;;;18.91;40.09;97519.63;5069190;28;40586;-86
2024/02/26 12:47:42;;;;;;;3.13;2.00;;;;;;;19.17;40.68;97513.84;5052990;28;42002;-85
2024/02/26 12:50:13;;;;;;;3.10;2.10;;;;;;;19.68;40.37;97511.31;5069012;28;41844;-90
2024/02/26 12:52:44;;;;;;;2.37;1.70;;;;;;;20.02;38.76;97533.06;5053169;28;42554;-87
2024/02/26 12:55:15;;;;;;;2.13;1.93;;;;;;;19.95;37.63;97536.69;5069522;28;39128;-87
2024/02/26 12:57:44;;;;;;;2.57;2.37;;;;;;;19.90;38.00;97526.50;5053231;28;40758;-89
2024/02/26 13:00:15;;;;;;;2.40;2.00;;;;;;;19.76;37.67;97519.28;5053573;28;41532;-89
2024/02/26 13:02:45;;;;;;;2.30;2.10;;;;;;;19.59;38.45;97507.91;5054002;28;41332;-88
2024/02/26 13:05:16;;;;;;;2.23;2.03;;;;;;;19.60;37.63;97514.94;5053416;28;40007;-85
2024/02/26 13:07:44;;;;;;;2.20;2.00;;;;;;;19.78;39.26;97505.69;5053969;28;40371;-90
2024/02/26 13:10:12;;;;;;;2.43;2.03;;;;;;;20.02;39.52;97522.31;5053884;28;43960;-90
2024/02/26 13:12:44;;;;;;;2.83;1.90;;;;;;;20.01;38.08;97530.56;5053657;28;42820;-88
2024/02/26 13:15:16;;;;;;;2.87;1.97;;;;;;;20.26;37.81;97541.84;5071633;28;40442;-91
2024/02/26 13:17:45;;;;;;;3.50;2.33;;;;;;;20.58;37.56;97546.78;5056905;28;40998;-87
2024/02/26 13:20:13;;;;;;;4.13;1.80;;;;;;;20.87;37.62;97523.47;5056840;28;42030;-88
2024/02/26 13:22:44;;;;;;;2.37;2.17;;;;;;;21.05;37.00;97538.09;5056849;28;42659;-88
2024/02/26 13:25:12;;;;;;;2.20;1.93;;;;;;;21.20;35.97;97550.69;5056815;28;39176;-87
2024/02/26 13:27:39;;;;;;;2.40;1.90;;;;;;;21.61;36.32;97548.94;5054133;28;42222;-91
2024/02/26 13:30:11;;;;;;;2.53;2.17;;;;;;;21.97;35.83;97559.53;5054923;28;41676;-88
2024/02/26 13:32:40;;;;;;;2.47;2.07;;;;;;;22.11;35.25;97553.19;5055530;28;40927;-89
2024/02/26 13:35:12;;;;;;;2.90;2.40;;;;;;;22.21;34.26;97580.63;5055502;28;38944;-88
2024/02/26 13:37:41;;;;;;;2.73;2.27;;;;;;;22.43;34.17;97578.63;5055594;28;41016;-92
2024/02/26 13:40:10;;;;;;;4.30;2.50;;;;;;;22.69;34.12;97564.38;5052406;28;44678;-90
2024/02/26 13:42:37;;;;;;;2.80;1.97;;;;;;;23.40;33.87;97564.69;5042466;28;42640;-88
2024/02/26 13:45:07;;;;;;;2.53;2.17;;;;;;;23.88;32.37;97581.50;5055629;28;39807;-88
2024/02/26 13:47:35;;;;;;;3.23;2.50;;;;;;;24.22;33.11;97572.31;5055420;28;41226;-86
2024/02/26 13:50:03;;;;;;;3.00;2.50;;;;;;;24.43;32.31;97576.59;5055248;28;42023;-87
2024/02/26 13:52:34;;;;;;;2.47;2.27;;;;;;;24.54;31.40;97591.31;5055152;28;42079;-83
2024/02/26 13:55:02;;;;;;;2.90;2.43;;;;;;;24.40;32.37;97581.59;5054974;28;39602;-83
2024/02/26 13:57:30;;;;;;;2.40;2.20;;;;;;;23.80;31.92;97578.22;5054957;28;42289;-87
2024/02/26 13:59:58;;;;;;;2.90;2.30;;;;;;;23.18;32.73;97596.50;5055481;28;41623;-86
2024/02/26 14:02:25;;;;;;;2.33;2.13;;;;;;;22.56;33.77;97592.16;5075605;28;41657;-87
2024/02/26 14:04:53;;;;;;;2.47;2.00;;;;;;;22.04;34.14;97575.75;5056179;28;40045;-83
2024/02/26 14:07:20;;;;;;;2.70;1.97;;;;;;;21.61;34.65;97573.19;5055978;28;41525;-87
2024/02/26 14:09:51;;;;;;;4.07;2.10;;;;;;;21.27;34.94;97586.56;5072480;28;43236;-86
2024/02/26 14:12:19;;;;;;;2.10;1.90;;;;;;;21.10;35.52;97578.75;5056047;28;41188;-88
2024/02/26 14:14:48;;;;;;;2.23;1.80;;;;;;;21.18;36.57;97580.47;5055906;28;39982;-87
2024/02/26 14:17:16;;;;;;;2.27;1.90;;;;;;;21.20;36.46;97577.63;5072960;28;41707;-87
2024/02/26 14:19:44;;;;;;;2.43;2.17;;;;;;;21.07;36.35;97573.75;5072870;28;42820;-85
2024/02/26 14:22:12;;;;;;;2.67;1.93;;;;;;;20.95;36.47;97596.81;5055947;28;43117;-83
2024/02/26 14:24:39;;;;;;;1.93;1.60;;;;;;;20.70;37.15;97557.84;5073481;28;40709;-83
2024/02/26 14:27:10;;;;;;;1.70;1.60;;;;;;;20.93;36.91;97582.72;5072163;28;41546;-83
2024/02/26 14:29:39;;;;;;;3.27;2.10;;;;;;;21.15;36.36;97592.44;5053750;28;41487;-84
2024/02/26 14:32:07;;;;;;;2.83;1.80;;;;;;;21.19;36.29;97571.41;5071405;28;42407;-86
2024/02/26 14:34:35;;;;;;;1.90;1.70;;;;;;;21.42;35.82;97582.78;5044917;28;39363;-86
2024/02/26 14:37:02;;;;;;;3.40;2.20;;;;;;;21.46;35.03;97610.16;5034611;28;41096;-84
2024/02/26 14:39:31;;;;;;;2.20;2.00;;;;;;;21.06;36.15;97593.63;5058350;28;42529;-84